createdAt,value
2019-05-10T00:01:46.769Z,5.40
2019-05-10T00:04:30.026Z,6.13
2019-05-10T00:07:13.422Z,6.37
2019-05-10T00:09:38.270Z,7.67
2019-05-10T00:12:23.644Z,6.27
2019-05-10T00:14:51.134Z,8.77
2019-05-10T00:17:21.275Z,7.23
2019-05-10T00:19:46.677Z,7.57
2019-05-10T00:22:12.113Z,8.23
2019-05-10T00:24:37.460Z,7.17
2019-05-10T00:27:03.263Z,9.87
2019-05-10T00:29:28.650Z,8.83
2019-05-10T00:31:54.074Z,8.47
2019-05-10T00:34:19.605Z,8.03
2019-05-10T00:36:45.079Z,9.03
2019-05-10T00:39:10.462Z,10.30
2019-05-10T00:41:35.805Z,9.73
2019-05-10T00:44:01.189Z,9.03
2019-05-10T00:46:26.551Z,9.30
2019-05-10T00:48:52.027Z,8.83
2019-05-10T00:51:17.374Z,8.53
2019-05-10T00:53:42.735Z,8.70
2019-05-10T00:56:08.126Z,9.20
2019-05-10T00:58:33.474Z,9.03
2019-05-10T01:00:58.953Z,8.53
2019-05-10T01:03:24.314Z,8.07
2019-05-10T01:05:49.663Z,8.70
2019-05-10T01:08:15.050Z,9.27
2019-05-10T01:10:40.410Z,9.53
2019-05-10T01:13:05.814Z,9.53
2019-05-10T01:15:31.384Z,9.43
2019-05-10T01:17:56.806Z,9.60
2019-05-10T01:20:22.225Z,9.40
2019-05-10T01:22:47.591Z,9.03
2019-05-10T01:25:13.100Z,9.80
2019-05-10T01:27:38.453Z,9.60
2019-05-10T01:30:03.809Z,9.87
2019-05-10T01:32:29.202Z,9.63
2019-05-10T01:34:54.563Z,9.37
2019-05-10T01:37:19.952Z,9.23
2019-05-10T01:39:45.295Z,8.77
2019-05-10T01:42:10.791Z,9.07
2019-05-10T01:44:36.146Z,10.30
2019-05-10T01:47:01.495Z,9.10
2019-05-10T01:49:26.984Z,8.43
2019-05-10T01:51:52.323Z,8.50
2019-05-10T01:54:17.678Z,7.97
2019-05-10T01:56:43.058Z,9.03
2019-05-10T01:59:08.498Z,8.00
2019-05-10T02:01:33.897Z,8.33
2019-05-10T02:03:59.262Z,8.57
2019-05-10T02:06:24.668Z,9.40
2019-05-10T02:08:50.058Z,8.80
2019-05-10T02:11:15.479Z,7.97
2019-05-10T02:13:40.866Z,8.60
2019-05-10T02:16:06.414Z,8.50
2019-05-10T02:18:31.767Z,7.97
2019-05-10T02:20:57.292Z,8.00
2019-05-10T02:23:22.640Z,8.97
2019-05-10T02:25:47.982Z,8.23
2019-05-10T02:28:15.502Z,8.30
2019-05-10T02:30:40.870Z,8.50
2019-05-10T02:33:06.323Z,8.30
2019-05-10T02:35:31.674Z,8.10
2019-05-10T02:37:57.034Z,7.20
2019-05-10T02:40:22.519Z,7.93
2019-05-10T02:42:47.890Z,8.53
2019-05-10T02:45:13.624Z,8.07
2019-05-10T02:47:38.986Z,8.03
2019-05-10T02:50:04.790Z,7.70
2019-05-10T02:52:30.686Z,7.67
2019-05-10T02:54:56.335Z,7.20
2019-05-10T02:57:21.932Z,7.60
2019-05-10T02:59:48.887Z,7.40
2019-05-10T03:02:14.542Z,7.50
2019-05-10T03:04:39.925Z,7.30
2019-05-10T03:07:06.492Z,6.73
2019-05-10T03:09:34.390Z,7.10
2019-05-10T03:12:04.375Z,6.83
2019-05-10T03:14:32.663Z,6.63
2019-05-10T03:17:00.347Z,7.13
2019-05-10T03:19:26.001Z,6.07
2019-05-10T03:22:04.980Z,6.20
2019-05-10T03:24:30.319Z,6.03
2019-05-10T03:26:55.673Z,5.87
2019-05-10T03:29:21.050Z,5.97
2019-05-10T03:31:46.399Z,6.07
2019-05-10T03:34:11.875Z,5.53
2019-05-10T03:36:37.331Z,5.40
2019-05-10T03:39:02.687Z,5.17
2019-05-10T03:41:28.163Z,5.10
2019-05-10T03:43:53.523Z,5.27
2019-05-10T03:46:18.942Z,4.70
2019-05-10T03:48:44.341Z,4.40
2019-05-10T03:51:09.696Z,4.40
2019-05-10T03:53:35.082Z,4.20
2019-05-10T03:56:00.439Z,4.87
2019-05-10T03:58:25.803Z,4.80
2019-05-10T04:00:51.169Z,3.97
2019-05-10T04:03:16.523Z,4.10
2019-05-10T04:05:53.420Z,3.97
2019-05-10T04:08:19.743Z,4.50
2019-05-10T04:10:45.103Z,4.50
2019-05-10T04:13:10.513Z,4.40
2019-05-10T04:15:35.887Z,3.90
2019-05-10T04:18:01.453Z,3.97
2019-05-10T04:20:26.878Z,3.70
2019-05-10T04:22:52.232Z,3.80
2019-05-10T04:25:17.736Z,3.30
2019-05-10T04:27:43.096Z,3.40
2019-05-10T04:30:08.751Z,3.30
2019-05-10T04:32:34.138Z,3.70
2019-05-10T04:34:59.495Z,4.00
2019-05-10T04:37:24.835Z,3.80
2019-05-10T04:39:50.234Z,3.73
2019-05-10T04:42:15.583Z,4.00
2019-05-10T04:44:40.944Z,4.10
2019-05-10T04:47:06.319Z,3.77
2019-05-10T04:49:31.672Z,4.17
2019-05-10T04:51:57.042Z,4.17
2019-05-10T04:54:22.442Z,4.03
2019-05-10T04:56:47.785Z,4.10
2019-05-10T04:59:13.144Z,4.37
2019-05-10T05:01:38.564Z,4.43
2019-05-10T05:04:04.028Z,4.70
2019-05-10T05:06:29.402Z,5.27
2019-05-10T05:08:54.790Z,5.40
2019-05-10T05:11:21.207Z,5.50
2019-05-10T05:13:46.581Z,5.13
2019-05-10T05:16:11.953Z,5.33
2019-05-10T05:18:37.707Z,5.90
2019-05-10T05:21:03.088Z,5.57
2019-05-10T05:23:28.846Z,6.00
2019-05-10T05:25:54.200Z,6.30
2019-05-10T05:28:23.144Z,6.00
2019-05-10T05:30:46.710Z,6.30
2019-05-10T05:33:12.073Z,5.87
2019-05-10T05:35:37.433Z,5.40
2019-05-10T05:38:02.827Z,5.20
2019-05-10T05:40:28.194Z,5.60
2019-05-10T05:42:53.558Z,5.13
2019-05-10T05:45:18.954Z,4.93
2019-05-10T05:47:44.792Z,5.30
2019-05-10T05:50:11.075Z,4.40
2019-05-10T05:52:36.507Z,4.80
2019-05-10T05:55:01.885Z,4.40
2019-05-10T05:57:29.673Z,3.97
2019-05-10T05:59:57.585Z,3.63
2019-05-10T06:02:22.165Z,3.63
2019-05-10T06:04:47.732Z,3.27
2019-05-10T06:07:13.214Z,3.07
2019-05-10T06:09:39.408Z,2.80
2019-05-10T06:12:07.386Z,3.03
2019-05-10T06:14:32.065Z,3.23
2019-05-10T06:16:57.478Z,3.00
2019-05-10T06:19:29.510Z,2.73
2019-05-10T06:21:49.847Z,2.80
2019-05-10T06:24:15.815Z,2.77
2019-05-10T06:26:41.378Z,2.60
2019-05-10T06:29:16.711Z,2.60
2019-05-10T06:31:34.419Z,2.40
2019-05-10T06:33:59.768Z,2.90
2019-05-10T06:36:25.149Z,2.90
2019-05-10T06:38:50.499Z,2.83
2019-05-10T06:41:16.774Z,3.10
2019-05-10T06:43:45.577Z,2.70
2019-05-10T06:46:09.835Z,3.00
2019-05-10T06:48:35.185Z,3.20
2019-05-10T06:51:02.919Z,3.10
2019-05-10T06:53:27.570Z,3.40
2019-05-10T06:55:52.946Z,3.37
2019-05-10T06:58:18.456Z,3.20
2019-05-10T07:00:47.360Z,3.17
2019-05-10T07:03:10.805Z,3.23
2019-05-10T07:05:36.195Z,2.90
2019-05-10T07:08:13.863Z,3.07
2019-05-10T07:10:33.588Z,3.80
2019-05-10T07:12:56.979Z,3.87
2019-05-10T07:15:22.631Z,3.73
2019-05-10T07:17:48.050Z,4.30
2019-05-10T07:20:13.549Z,4.30
2019-05-10T07:22:38.913Z,4.40
2019-05-10T07:25:04.824Z,4.77
2019-05-10T07:27:36.752Z,3.93
2019-05-10T07:29:58.390Z,4.00
2019-05-10T07:32:24.842Z,4.20
2019-05-10T07:34:58.716Z,4.80
2019-05-10T07:37:17.297Z,5.03
2019-05-10T07:39:42.643Z,4.40
2019-05-10T07:42:09.137Z,4.90
2019-05-10T07:44:34.674Z,4.93
2019-05-10T07:47:00.115Z,5.70
2019-05-10T07:49:30.096Z,5.23
2019-05-10T07:51:52.619Z,5.80
2019-05-10T07:54:17.965Z,6.10
2019-05-10T07:56:45.512Z,5.87
2019-05-10T07:59:10.523Z,5.63
2019-05-10T08:01:36.979Z,6.60
2019-05-10T08:04:02.578Z,7.13
2019-05-10T08:06:31.982Z,7.20
2019-05-10T08:08:55.529Z,7.63
2019-05-10T08:11:23.039Z,7.80
2019-05-10T08:13:48.643Z,8.37
2019-05-10T08:16:19.680Z,8.40
2019-05-10T08:18:42.529Z,8.07
2019-05-10T08:21:20.426Z,9.00
2019-05-10T08:23:36.183Z,8.97
2019-05-10T08:26:04.490Z,9.10
2019-05-10T08:28:34.213Z,8.67
2019-05-10T08:30:58.649Z,10.27
2019-05-10T08:33:22.968Z,10.13
2019-05-10T08:35:52.525Z,10.23
2019-05-10T08:38:15.509Z,10.70
2019-05-10T08:40:42.843Z,12.30
2019-05-10T08:43:10.971Z,12.30
2019-05-10T08:45:38.750Z,12.53
2019-05-10T08:48:06.874Z,12.00
2019-05-10T08:50:45.606Z,12.50
2019-05-10T08:53:02.330Z,13.60
2019-05-10T08:55:26.704Z,13.80
2019-05-10T08:57:52.519Z,13.70
2019-05-10T09:00:37.166Z,14.60
2019-05-10T09:02:45.791Z,13.67
2019-05-10T09:05:12.490Z,13.33
2019-05-10T09:07:39.116Z,13.50
2019-05-10T09:10:04.834Z,12.90
2019-05-10T09:12:32.938Z,12.73
2019-05-10T09:15:06.575Z,12.83
2019-05-10T09:17:28.215Z,12.63
2019-05-10T09:19:53.342Z,11.57
2019-05-10T09:22:23.404Z,11.10
2019-05-10T09:24:48.531Z,10.60
2019-05-10T09:27:12.967Z,11.17
2019-05-10T09:29:38.953Z,12.13
2019-05-10T09:32:06.644Z,11.43
2019-05-10T09:34:32.445Z,11.37
2019-05-10T09:36:59.055Z,11.50
2019-05-10T09:39:25.311Z,10.80
2019-05-10T09:41:52.844Z,10.03
2019-05-10T09:44:17.722Z,11.40
2019-05-10T09:46:44.186Z,11.47
2019-05-10T09:49:15.806Z,11.77
2019-05-10T09:51:37.231Z,12.63
2019-05-10T09:54:02.686Z,12.50
2019-05-10T09:56:32.911Z,12.37
2019-05-10T09:58:55.058Z,12.63
2019-05-10T10:01:21.822Z,12.50
2019-05-10T10:03:47.781Z,12.17
2019-05-10T10:06:13.298Z,12.70
2019-05-10T10:08:43.404Z,13.10
2019-05-10T10:11:11.514Z,14.53
2019-05-10T10:13:39.939Z,14.67
2019-05-10T10:16:04.090Z,15.40
2019-05-10T10:18:28.389Z,16.10
2019-05-10T10:20:54.977Z,15.40
2019-05-10T10:23:24.732Z,15.77
2019-05-10T10:25:48.405Z,15.47
2019-05-10T10:28:19.101Z,15.57
2019-05-10T10:30:41.091Z,14.80
2019-05-10T10:33:11.304Z,14.33
2019-05-10T10:35:33.557Z,14.53
2019-05-10T10:38:03.130Z,14.43
2019-05-10T10:40:27.963Z,14.50
2019-05-10T10:42:52.997Z,13.87
2019-05-10T10:45:20.290Z,12.60
2019-05-10T10:47:47.174Z,12.77
2019-05-10T10:50:13.779Z,12.30
2019-05-10T10:52:58.345Z,12.10
2019-05-10T10:55:23.718Z,11.10
2019-05-10T10:57:49.084Z,11.37
2019-05-10T11:00:20.211Z,11.13
2019-05-10T11:02:46.694Z,10.97
2019-05-10T11:05:09.688Z,10.97
2019-05-10T11:07:38.105Z,10.77
2019-05-10T11:10:14.634Z,9.90
2019-05-10T11:12:30.744Z,9.43
2019-05-10T11:14:57.505Z,7.40
2019-05-10T11:17:22.861Z,5.40
2019-05-10T11:19:48.322Z,5.40
2019-05-10T11:22:13.840Z,5.13
2019-05-10T11:24:39.198Z,5.50
2019-05-10T11:27:07.162Z,7.10
2019-05-10T11:29:31.667Z,6.70
2019-05-10T11:32:12.109Z,6.60
2019-05-10T11:34:29.304Z,6.97
2019-05-10T11:36:51.466Z,7.43
2019-05-10T11:39:26.094Z,7.27
2019-05-10T11:41:44.135Z,8.47
2019-05-10T11:44:11.963Z,7.87
2019-05-10T11:46:36.598Z,7.80
2019-05-10T11:49:01.995Z,8.40
2019-05-10T11:51:27.444Z,9.93
2019-05-10T11:53:57.867Z,8.23
2019-05-10T11:56:26.837Z,7.33
2019-05-10T11:58:54.919Z,7.23
2019-05-10T12:01:19.005Z,5.60
2019-05-10T12:03:42.480Z,5.30
2019-05-10T12:06:09.199Z,5.37
2019-05-10T12:08:34.911Z,5.67
2019-05-10T12:11:13.958Z,5.60
2019-05-10T12:13:27.319Z,5.37
2019-05-10T12:15:52.673Z,5.53
2019-05-10T12:18:26.239Z,5.50
2019-05-10T12:20:54.773Z,5.93
2019-05-10T12:23:22.600Z,5.90
2019-05-10T12:25:57.486Z,5.50
2019-05-10T12:28:06.178Z,6.60
2019-05-10T12:30:35.068Z,6.23
2019-05-10T12:33:05.988Z,5.67
2019-05-10T12:35:26.468Z,6.87
2019-05-10T12:37:54.108Z,7.03
2019-05-10T12:40:23.883Z,7.03
2019-05-10T12:42:47.494Z,5.70
2019-05-10T12:45:13.128Z,4.43
2019-05-10T12:47:41.282Z,3.57
2019-05-10T12:50:06.046Z,3.30
2019-05-10T12:52:32.147Z,2.90
2019-05-10T12:54:57.743Z,2.93
2019-05-10T12:57:23.247Z,3.10
2019-05-10T12:59:48.638Z,3.60
2019-05-10T13:02:13.993Z,2.90
2019-05-10T13:04:40.908Z,3.20
2019-05-10T13:07:06.468Z,3.10
2019-05-10T13:09:39.686Z,2.97
2019-05-10T13:12:03.854Z,2.83
2019-05-10T13:14:29.073Z,3.03
2019-05-10T13:16:53.771Z,2.57
2019-05-10T13:19:20.248Z,2.47
2019-05-10T13:21:45.733Z,2.23
2019-05-10T13:24:11.178Z,3.50
2019-05-10T13:26:36.674Z,2.43
2019-05-10T13:29:07.413Z,2.50
2019-05-10T13:31:29.394Z,2.80
2019-05-10T13:33:54.874Z,2.63
2019-05-10T13:36:20.217Z,3.07
2019-05-10T13:38:49.279Z,3.03
2019-05-10T13:41:12.730Z,3.00
2019-05-10T13:43:38.083Z,3.20
2019-05-10T13:46:03.486Z,2.97
2019-05-10T13:48:28.858Z,3.83
2019-05-10T13:50:54.306Z,3.73
2019-05-10T13:53:21.323Z,3.20
2019-05-10T13:55:46.791Z,3.20
2019-05-10T13:58:12.440Z,3.20
2019-05-10T14:00:38.002Z,3.60
2019-05-10T14:03:04.996Z,3.50
2019-05-10T14:05:30.438Z,3.07
2019-05-10T14:07:55.826Z,2.93
2019-05-10T14:10:23.729Z,3.37
2019-05-10T14:12:49.995Z,3.77
2019-05-10T14:15:15.643Z,4.40
2019-05-10T14:17:41.149Z,3.40
2019-05-10T14:20:18.985Z,3.53
2019-05-10T14:22:34.434Z,3.17
2019-05-10T14:24:59.854Z,3.57
2019-05-10T14:27:29.795Z,3.80
2019-05-10T14:29:52.182Z,3.50
2019-05-10T14:32:17.670Z,3.10
2019-05-10T14:34:46.221Z,2.90
2019-05-10T14:37:14.335Z,2.80
2019-05-10T14:39:38.803Z,4.37
2019-05-10T14:42:04.146Z,4.28
2019-05-10T14:44:29.531Z,4.03
2019-05-10T14:46:54.950Z,4.53
2019-05-10T14:49:20.356Z,4.40
2019-05-10T14:51:58.617Z,4.67
2019-05-10T14:54:13.131Z,4.00
2019-05-10T14:56:38.487Z,3.90
2019-05-10T14:59:03.844Z,3.40
2019-05-10T15:01:29.235Z,2.98
2019-05-10T15:03:54.576Z,2.20
2019-05-10T15:06:20.133Z,2.30
2019-05-10T15:08:45.988Z,2.20
2019-05-10T15:11:11.415Z,2.30
2019-05-10T15:13:37.021Z,2.27
2019-05-10T15:16:02.595Z,2.22
2019-05-10T15:18:28.360Z,1.93
2019-05-10T15:20:53.682Z,1.80
2019-05-10T15:23:19.386Z,1.80
2019-05-10T15:25:56.335Z,1.40
2019-05-10T15:28:11.878Z,1.30
2019-05-10T15:30:39.112Z,1.30
2019-05-10T15:33:04.376Z,1.33
2019-05-10T15:35:29.731Z,1.30
2019-05-10T15:37:56.278Z,1.30
2019-05-10T15:40:44.511Z,1.20
2019-05-10T15:43:10.716Z,1.30
2019-05-10T15:45:36.261Z,0.90
2019-05-10T15:48:03.012Z,1.27
2019-05-10T15:50:32.541Z,1.30
2019-05-10T15:52:55.791Z,1.80
2019-05-10T15:55:28.847Z,1.80
2019-05-10T15:57:51.818Z,1.80
2019-05-10T16:00:15.232Z,1.63
2019-05-10T16:02:40.600Z,2.10
2019-05-10T16:05:23.396Z,2.40
2019-05-10T16:07:33.821Z,1.93
2019-05-10T16:09:59.199Z,2.40
2019-05-10T16:12:24.567Z,2.00
2019-05-10T16:14:49.931Z,2.00
2019-05-10T16:17:17.573Z,2.40
2019-05-10T16:19:42.317Z,2.10
2019-05-10T16:22:07.673Z,1.77
2019-05-10T16:24:33.038Z,1.90
2019-05-10T16:27:00.219Z,1.80
2019-05-10T16:29:25.438Z,1.80
2019-05-10T16:31:51.897Z,1.70
2019-05-10T16:34:17.323Z,1.70
2019-05-10T16:36:42.669Z,2.00
2019-05-10T16:39:08.364Z,1.70
2019-05-10T16:41:34.194Z,1.40
2019-05-10T16:44:00.162Z,1.70
2019-05-10T16:46:26.839Z,1.50
2019-05-10T16:48:52.250Z,1.37
2019-05-10T16:51:17.614Z,1.40
2019-05-10T16:53:45.864Z,1.30
2019-05-10T16:56:13.369Z,1.30
2019-05-10T16:58:40.175Z,1.17
2019-05-10T17:01:05.554Z,1.20
2019-05-10T17:03:30.987Z,1.70
2019-05-10T17:05:58.762Z,1.33
2019-05-10T17:08:23.314Z,1.30
2019-05-10T17:10:48.714Z,1.43
2019-05-10T17:13:14.097Z,1.60
2019-05-10T17:15:41.585Z,1.73
2019-05-10T17:18:10.408Z,1.43
2019-05-10T17:20:33.473Z,1.67
2019-05-10T17:23:08.081Z,1.93
2019-05-10T17:25:27.642Z,1.87
2019-05-10T17:27:57.549Z,1.50
2019-05-10T17:30:21.674Z,1.90
2019-05-10T17:32:47.406Z,1.70
2019-05-10T17:35:12.862Z,1.50
2019-05-10T17:37:39.086Z,1.57
2019-05-10T17:40:09.464Z,1.50
2019-05-10T17:42:35.618Z,1.40
2019-05-10T17:45:01.666Z,1.50
2019-05-10T17:47:27.041Z,1.40
2019-05-10T17:49:54.999Z,1.50
2019-05-10T17:52:20.374Z,1.47
2019-05-10T17:54:45.831Z,1.80
2019-05-10T17:57:16.775Z,1.73
2019-05-10T17:59:38.173Z,1.77
2019-05-10T18:02:03.700Z,1.63
2019-05-10T18:04:30.200Z,1.30
2019-05-10T18:06:55.542Z,1.57
2019-05-10T18:09:21.022Z,2.17
2019-05-10T18:11:46.372Z,1.80
2019-05-10T18:14:12.491Z,1.70
2019-05-10T18:16:41.870Z,1.40
2019-05-10T18:19:06.302Z,1.27
2019-05-10T18:21:31.650Z,1.30
2019-05-10T18:23:58.155Z,1.60
2019-05-10T18:26:24.017Z,1.30
2019-05-10T18:28:49.485Z,1.47
2019-05-10T18:31:14.878Z,1.53
2019-05-10T18:33:44.806Z,1.77
2019-05-10T18:36:07.215Z,1.97
2019-05-10T18:38:37.175Z,2.07
2019-05-10T18:40:59.574Z,2.70
2019-05-10T18:43:24.906Z,2.53
2019-05-10T18:45:51.502Z,2.40
2019-05-10T18:48:16.866Z,2.20
2019-05-10T18:50:45.218Z,2.17
2019-05-10T18:53:09.250Z,2.13
2019-05-10T18:55:34.599Z,2.40
2019-05-10T18:57:59.970Z,2.30
2019-05-10T19:00:25.490Z,1.90
2019-05-10T19:02:55.294Z,2.10
2019-05-10T19:05:17.990Z,2.13
2019-05-10T19:07:43.486Z,2.00
2019-05-10T19:10:08.982Z,2.27
2019-05-10T19:12:34.599Z,2.70
2019-05-10T19:15:02.427Z,3.10
2019-05-10T19:17:27.350Z,3.40
2019-05-10T19:19:52.713Z,3.13
2019-05-10T19:22:18.664Z,2.90
2019-05-10T19:24:44.084Z,2.90
2019-05-10T19:27:09.477Z,2.53
2019-05-10T19:29:38.732Z,2.30
2019-05-10T19:32:01.830Z,2.47
2019-05-10T19:34:28.257Z,2.60
2019-05-10T19:36:53.651Z,2.50
2019-05-10T19:39:18.991Z,2.70
2019-05-10T19:41:44.389Z,2.47
2019-05-10T19:44:09.835Z,2.90
2019-05-10T19:46:39.311Z,3.03
2019-05-10T19:49:02.165Z,2.80
2019-05-10T19:51:27.543Z,3.10
2019-05-10T19:53:52.893Z,2.87
2019-05-10T19:56:18.736Z,2.73
2019-05-10T19:58:44.477Z,2.47
2019-05-10T20:01:09.830Z,2.33
2019-05-10T20:03:35.183Z,2.50
2019-05-10T20:06:00.576Z,2.60
2019-05-10T20:08:25.942Z,2.33
2019-05-10T20:10:51.334Z,2.83
2019-05-10T20:13:16.722Z,2.97
2019-05-10T20:15:42.524Z,2.87
2019-05-10T20:18:07.866Z,2.80
2019-05-10T20:20:33.351Z,2.90
2019-05-10T20:22:58.699Z,3.20
2019-05-10T20:25:25.130Z,3.40
2019-05-10T20:27:50.609Z,3.27
2019-05-10T20:30:16.569Z,3.40
2019-05-10T20:32:42.238Z,3.50
2019-05-10T20:35:08.602Z,3.37
2019-05-10T20:37:33.946Z,3.00
2019-05-10T20:39:59.319Z,3.67
2019-05-10T20:42:24.692Z,3.67
2019-05-10T20:45:05.632Z,3.53
2019-05-10T20:47:17.038Z,3.47
2019-05-10T20:49:42.518Z,3.50
2019-05-10T20:52:07.912Z,4.27
2019-05-10T20:54:33.256Z,3.60
2019-05-10T20:56:58.634Z,3.80
2019-05-10T20:59:24.053Z,3.40
2019-05-10T21:01:49.422Z,3.63
2019-05-10T21:04:14.814Z,4.00
2019-05-10T21:06:40.162Z,3.63
2019-05-10T21:09:06.786Z,3.27
2019-05-10T21:11:32.350Z,3.27
2019-05-10T21:13:58.053Z,4.03
2019-05-10T21:16:23.486Z,5.27
2019-05-10T21:18:48.861Z,4.50
2019-05-10T21:21:14.221Z,5.33
2019-05-10T21:23:39.583Z,5.50
2019-05-10T21:26:05.054Z,4.50
2019-05-10T21:28:30.466Z,4.20
2019-05-10T21:30:56.930Z,3.97
2019-05-10T21:33:22.408Z,4.47
2019-05-10T21:35:47.794Z,4.40
2019-05-10T21:38:13.150Z,4.23
2019-05-10T21:40:38.550Z,4.60
2019-05-10T21:43:04.999Z,4.80
2019-05-10T21:45:30.346Z,4.10
2019-05-10T21:47:55.739Z,3.80
2019-05-10T21:50:21.113Z,3.90
2019-05-10T21:52:46.458Z,4.67
2019-05-10T21:55:30.964Z,4.37
2019-05-10T21:57:56.302Z,4.73
2019-05-10T22:00:26.599Z,4.50
2019-05-10T22:02:52.546Z,5.80
2019-05-10T22:05:17.969Z,7.53
2019-05-10T22:07:43.330Z,6.80
2019-05-10T22:10:08.726Z,6.50
2019-05-10T22:12:34.162Z,6.53
2019-05-10T22:14:59.532Z,5.97
2019-05-10T22:17:24.930Z,5.33
2019-05-10T22:19:50.291Z,6.20
2019-05-10T22:22:15.626Z,6.13
2019-05-10T22:24:41.094Z,6.17
2019-05-10T22:27:06.434Z,6.50
2019-05-10T22:29:31.797Z,6.13
2019-05-10T22:31:57.242Z,5.87
2019-05-10T22:34:22.582Z,5.00
2019-05-10T22:36:47.936Z,4.80
2019-05-10T22:39:13.350Z,5.43
2019-05-10T22:41:38.708Z,4.73
2019-05-10T22:44:04.113Z,4.97
2019-05-10T22:46:29.489Z,4.40
2019-05-10T22:48:54.862Z,4.43
2019-05-10T22:51:20.210Z,4.73
2019-05-10T22:53:53.214Z,4.93
2019-05-10T22:56:12.674Z,5.80
2019-05-10T22:58:39.090Z,5.13
2019-05-10T23:01:04.589Z,4.73
2019-05-10T23:03:29.923Z,5.80
2019-05-10T23:05:55.311Z,4.93
2019-05-10T23:08:20.706Z,4.87
2019-05-10T23:10:46.103Z,5.77
2019-05-10T23:13:11.483Z,5.70
2019-05-10T23:15:37.026Z,5.23
2019-05-10T23:18:02.395Z,5.70
2019-05-10T23:20:27.794Z,4.60
2019-05-10T23:22:53.253Z,5.03
2019-05-10T23:25:18.610Z,5.60
2019-05-10T23:27:45.173Z,5.60
2019-05-10T23:30:10.934Z,5.80
2019-05-10T23:32:36.314Z,5.77
2019-05-10T23:35:01.670Z,6.33
2019-05-10T23:37:27.146Z,5.90
2019-05-10T23:39:52.494Z,6.50
2019-05-10T23:42:17.912Z,6.40
2019-05-10T23:44:43.327Z,6.60
2019-05-10T23:47:08.737Z,6.30
2019-05-10T23:49:34.088Z,6.03
2019-05-10T23:51:59.486Z,6.13
2019-05-10T23:54:24.823Z,6.63
2019-05-10T23:56:50.172Z,5.97
2019-05-10T23:59:15.641Z,5.87
